sensor_id;sensor_type;location;lat;lon;timestamp;P1;durP1;ratioP1;P2;durP2;ratioP2
58017;SDS011;43810;50.860;19.226;2023-05-21T00:00:22;24.55;;;16.13;;
58017;SDS011;43810;50.860;19.226;2023-05-21T00:03:08;25.52;;;16.77;;
58017;SDS011;43810;50.860;19.226;2023-05-21T00:05:40;23.80;;;15.50;;
58017;SDS011;43810;50.860;19.226;2023-05-21T00:08:08;24.65;;;15.85;;
58017;SDS011;43810;50.860;19.226;2023-05-21T00:10:35;24.42;;;15.60;;
58017;SDS011;43810;50.860;19.226;2023-05-21T00:13:01;25.65;;;16.52;;
58017;SDS011;43810;50.860;19.226;2023-05-21T00:15:27;25.17;;;15.85;;
58017;SDS011;43810;50.860;19.226;2023-05-21T00:17:53;26.13;;;17.42;;
58017;SDS011;43810;50.860;19.226;2023-05-21T00:20:19;27.35;;;16.30;;
58017;SDS011;43810;50.860;19.226;2023-05-21T00:22:45;23.98;;;16.65;;
58017;SDS011;43810;50.860;19.226;2023-05-21T00:25:10;22.92;;;16.27;;
58017;SDS011;43810;50.860;19.226;2023-05-21T00:27:36;27.15;;;18.05;;
58017;SDS011;43810;50.860;19.226;2023-05-21T00:30:03;31.27;;;18.27;;
58017;SDS011;43810;50.860;19.226;2023-05-21T00:32:29;28.65;;;18.35;;
58017;SDS011;43810;50.860;19.226;2023-05-21T00:34:55;30.92;;;18.13;;
58017;SDS011;43810;50.860;19.226;2023-05-21T00:37:22;28.92;;;17.90;;
58017;SDS011;43810;50.860;19.226;2023-05-21T00:39:49;35.83;;;21.13;;
58017;SDS011;43810;50.860;19.226;2023-05-21T00:42:15;33.40;;;19.75;;
58017;SDS011;43810;50.860;19.226;2023-05-21T00:44:45;30.52;;;20.65;;
58017;SDS011;43810;50.860;19.226;2023-05-21T00:47:12;32.33;;;20.75;;
58017;SDS011;43810;50.860;19.226;2023-05-21T00:49:38;28.92;;;20.00;;
58017;SDS011;43810;50.860;19.226;2023-05-21T00:52:04;31.23;;;21.05;;
58017;SDS011;43810;50.860;19.226;2023-05-21T00:54:31;31.58;;;21.30;;
58017;SDS011;43810;50.860;19.226;2023-05-21T00:56:57;29.55;;;20.33;;
58017;SDS011;43810;50.860;19.226;2023-05-21T00:59:24;34.67;;;21.13;;
58017;SDS011;43810;50.860;19.226;2023-05-21T01:01:51;30.33;;;19.42;;
58017;SDS011;43810;50.860;19.226;2023-05-21T01:04:23;33.80;;;20.77;;
58017;SDS011;43810;50.860;19.226;2023-05-21T01:06:49;32.60;;;20.58;;
58017;SDS011;43810;50.860;19.226;2023-05-21T01:09:17;30.40;;;20.52;;
58017;SDS011;43810;50.860;19.226;2023-05-21T01:11:48;28.15;;;19.05;;
58017;SDS011;43810;50.860;19.226;2023-05-21T01:14:16;31.30;;;20.17;;
58017;SDS011;43810;50.860;19.226;2023-05-21T01:16:45;33.08;;;21.67;;
58017;SDS011;43810;50.860;19.226;2023-05-21T01:19:20;33.58;;;21.95;;
58017;SDS011;43810;50.860;19.226;2023-05-21T01:21:49;30.20;;;20.38;;
58017;SDS011;43810;50.860;19.226;2023-05-21T01:24:21;28.30;;;19.67;;
58017;SDS011;43810;50.860;19.226;2023-05-21T01:26:47;30.85;;;20.05;;
58017;SDS011;43810;50.860;19.226;2023-05-21T01:29:15;32.35;;;20.40;;
58017;SDS011;43810;50.860;19.226;2023-05-21T01:31:51;29.17;;;19.42;;
58017;SDS011;43810;50.860;19.226;2023-05-21T01:34:29;33.63;;;19.48;;
58017;SDS011;43810;50.860;19.226;2023-05-21T01:37:26;32.85;;;21.48;;
58017;SDS011;43810;50.860;19.226;2023-05-21T01:43:20;30.52;;;19.70;;
58017;SDS011;43810;50.860;19.226;2023-05-21T01:45:47;34.35;;;22.02;;
58017;SDS011;43810;50.860;19.226;2023-05-21T01:48:19;33.88;;;20.38;;
58017;SDS011;43810;50.860;19.226;2023-05-21T01:50:46;37.42;;;20.42;;
58017;SDS011;43810;50.860;19.226;2023-05-21T01:53:13;32.83;;;21.52;;
58017;SDS011;43810;50.860;19.226;2023-05-21T01:55:39;29.88;;;20.13;;
58017;SDS011;43810;50.860;19.226;2023-05-21T01:58:06;38.72;;;21.58;;
58017;SDS011;43810;50.860;19.226;2023-05-21T02:00:32;36.10;;;22.65;;
58017;SDS011;43810;50.860;19.226;2023-05-21T02:02:59;35.17;;;21.98;;
58017;SDS011;43810;50.860;19.226;2023-05-21T02:05:25;35.60;;;21.27;;
58017;SDS011;43810;50.860;19.226;2023-05-21T02:07:51;32.67;;;20.88;;
58017;SDS011;43810;50.860;19.226;2023-05-21T02:10:17;33.95;;;21.48;;
58017;SDS011;43810;50.860;19.226;2023-05-21T02:12:43;32.47;;;21.98;;
58017;SDS011;43810;50.860;19.226;2023-05-21T02:15:09;34.35;;;21.67;;
58017;SDS011;43810;50.860;19.226;2023-05-21T02:17:35;28.52;;;19.77;;
58017;SDS011;43810;50.860;19.226;2023-05-21T02:20:03;32.30;;;21.20;;
58017;SDS011;43810;50.860;19.226;2023-05-21T02:22:39;32.97;;;20.85;;
58017;SDS011;43810;50.860;19.226;2023-05-21T02:25:06;32.25;;;20.88;;
58017;SDS011;43810;50.860;19.226;2023-05-21T02:27:34;33.53;;;20.98;;
58017;SDS011;43810;50.860;19.226;2023-05-21T02:30:01;33.72;;;20.30;;
58017;SDS011;43810;50.860;19.226;2023-05-21T02:32:32;34.00;;;20.95;;
58017;SDS011;43810;50.860;19.226;2023-05-21T02:34:58;31.95;;;20.50;;
58017;SDS011;43810;50.860;19.226;2023-05-21T02:37:25;29.65;;;19.83;;
58017;SDS011;43810;50.860;19.226;2023-05-21T02:39:54;31.58;;;19.23;;
58017;SDS011;43810;50.860;19.226;2023-05-21T02:42:21;27.52;;;20.42;;
58017;SDS011;43810;50.860;19.226;2023-05-21T02:44:50;30.40;;;20.40;;
58017;SDS011;43810;50.860;19.226;2023-05-21T02:47:17;32.95;;;19.98;;
58017;SDS011;43810;50.860;19.226;2023-05-21T02:49:43;33.55;;;20.30;;
58017;SDS011;43810;50.860;19.226;2023-05-21T02:52:09;34.88;;;21.50;;
58017;SDS011;43810;50.860;19.226;2023-05-21T02:54:35;29.58;;;20.92;;
58017;SDS011;43810;50.860;19.226;2023-05-21T02:57:02;29.48;;;19.30;;
58017;SDS011;43810;50.860;19.226;2023-05-21T02:59:28;33.50;;;19.83;;
58017;SDS011;43810;50.860;19.226;2023-05-21T03:01:54;29.20;;;18.92;;
58017;SDS011;43810;50.860;19.226;2023-05-21T03:04:20;28.55;;;19.60;;
58017;SDS011;43810;50.860;19.226;2023-05-21T03:06:50;29.25;;;20.25;;
58017;SDS011;43810;50.860;19.226;2023-05-21T03:09:21;34.22;;;20.33;;
58017;SDS011;43810;50.860;19.226;2023-05-21T03:11:49;37.00;;;20.73;;
58017;SDS011;43810;50.860;19.226;2023-05-21T03:14:15;31.48;;;20.90;;
58017;SDS011;43810;50.860;19.226;2023-05-21T03:16:41;30.58;;;20.67;;
58017;SDS011;43810;50.860;19.226;2023-05-21T03:19:08;28.52;;;19.35;;
58017;SDS011;43810;50.860;19.226;2023-05-21T03:21:37;30.65;;;19.15;;
58017;SDS011;43810;50.860;19.226;2023-05-21T03:24:04;29.15;;;18.38;;
58017;SDS011;43810;50.860;19.226;2023-05-21T03:26:31;35.53;;;19.88;;
58017;SDS011;43810;50.860;19.226;2023-05-21T03:28:56;30.17;;;19.30;;
58017;SDS011;43810;50.860;19.226;2023-05-21T03:31:23;31.70;;;19.65;;
58017;SDS011;43810;50.860;19.226;2023-05-21T03:33:49;32.72;;;19.85;;
58017;SDS011;43810;50.860;19.226;2023-05-21T03:36:16;27.95;;;19.02;;
58017;SDS011;43810;50.860;19.226;2023-05-21T03:38:42;32.83;;;19.70;;
58017;SDS011;43810;50.860;19.226;2023-05-21T03:41:09;33.05;;;20.10;;
58017;SDS011;43810;50.860;19.226;2023-05-21T03:43:34;33.03;;;18.67;;
58017;SDS011;43810;50.860;19.226;2023-05-21T03:46:01;33.72;;;19.95;;
58017;SDS011;43810;50.860;19.226;2023-05-21T03:48:28;30.67;;;19.80;;
58017;SDS011;43810;50.860;19.226;2023-05-21T03:50:55;31.67;;;18.63;;
58017;SDS011;43810;50.860;19.226;2023-05-21T03:53:21;32.28;;;18.85;;
58017;SDS011;43810;50.860;19.226;2023-05-21T03:55:47;28.73;;;18.58;;
58017;SDS011;43810;50.860;19.226;2023-05-21T03:58:22;29.25;;;19.02;;
58017;SDS011;43810;50.860;19.226;2023-05-21T04:00:49;30.42;;;20.17;;
58017;SDS011;43810;50.860;19.226;2023-05-21T04:03:15;29.50;;;18.70;;
58017;SDS011;43810;50.860;19.226;2023-05-21T04:05:41;28.63;;;18.63;;
58017;SDS011;43810;50.860;19.226;2023-05-21T04:08:07;29.38;;;18.88;;
58017;SDS011;43810;50.860;19.226;2023-05-21T04:10:34;26.85;;;17.08;;
58017;SDS011;43810;50.860;19.226;2023-05-21T04:12:59;26.50;;;17.63;;
58017;SDS011;43810;50.860;19.226;2023-05-21T04:15:25;25.65;;;17.38;;
58017;SDS011;43810;50.860;19.226;2023-05-21T04:17:52;23.45;;;16.55;;
58017;SDS011;43810;50.860;19.226;2023-05-21T04:20:19;22.60;;;15.95;;
58017;SDS011;43810;50.860;19.226;2023-05-21T04:22:45;26.60;;;15.77;;
58017;SDS011;43810;50.860;19.226;2023-05-21T04:25:11;20.90;;;15.00;;
58017;SDS011;43810;50.860;19.226;2023-05-21T04:27:37;21.92;;;14.73;;
58017;SDS011;43810;50.860;19.226;2023-05-21T04:30:03;22.58;;;14.60;;
58017;SDS011;43810;50.860;19.226;2023-05-21T04:32:30;23.48;;;14.75;;
58017;SDS011;43810;50.860;19.226;2023-05-21T04:34:58;20.75;;;13.70;;
58017;SDS011;43810;50.860;19.226;2023-05-21T04:37:28;19.02;;;13.98;;
58017;SDS011;43810;50.860;19.226;2023-05-21T04:39:56;18.75;;;13.35;;
58017;SDS011;43810;50.860;19.226;2023-05-21T04:42:22;16.75;;;12.63;;
58017;SDS011;43810;50.860;19.226;2023-05-21T04:44:51;18.60;;;11.93;;
58017;SDS011;43810;50.860;19.226;2023-05-21T04:47:19;15.48;;;11.50;;
58017;SDS011;43810;50.860;19.226;2023-05-21T04:49:46;16.13;;;11.48;;
58017;SDS011;43810;50.860;19.226;2023-05-21T04:52:11;15.48;;;11.57;;
58017;SDS011;43810;50.860;19.226;2023-05-21T04:54:38;17.33;;;11.60;;
58017;SDS011;43810;50.860;19.226;2023-05-21T04:57:06;13.40;;;10.50;;
58017;SDS011;43810;50.860;19.226;2023-05-21T04:59:32;14.45;;;10.40;;
58017;SDS011;43810;50.860;19.226;2023-05-21T05:01:58;15.93;;;10.45;;
58017;SDS011;43810;50.860;19.226;2023-05-21T05:04:24;15.18;;;10.73;;
58017;SDS011;43810;50.860;19.226;2023-05-21T05:06:50;13.48;;;10.00;;
58017;SDS011;43810;50.860;19.226;2023-05-21T05:09:17;16.60;;;9.73;;
58017;SDS011;43810;50.860;19.226;2023-05-21T05:11:43;12.38;;;8.82;;
58017;SDS011;43810;50.860;19.226;2023-05-21T05:14:09;15.18;;;9.10;;
58017;SDS011;43810;50.860;19.226;2023-05-21T05:16:34;11.10;;;8.43;;
58017;SDS011;43810;50.860;19.226;2023-05-21T05:19:01;11.40;;;8.45;;
58017;SDS011;43810;50.860;19.226;2023-05-21T05:21:27;12.50;;;8.45;;
58017;SDS011;43810;50.860;19.226;2023-05-21T05:23:53;11.80;;;8.90;;
58017;SDS011;43810;50.860;19.226;2023-05-21T05:26:18;10.55;;;7.80;;
58017;SDS011;43810;50.860;19.226;2023-05-21T05:28:46;12.20;;;7.88;;
58017;SDS011;43810;50.860;19.226;2023-05-21T05:31:11;11.88;;;7.10;;
58017;SDS011;43810;50.860;19.226;2023-05-21T05:33:37;12.35;;;7.90;;
58017;SDS011;43810;50.860;19.226;2023-05-21T05:36:03;11.57;;;7.65;;
58017;SDS011;43810;50.860;19.226;2023-05-21T05:38:29;10.70;;;7.22;;
58017;SDS011;43810;50.860;19.226;2023-05-21T05:40:55;9.40;;;7.68;;
58017;SDS011;43810;50.860;19.226;2023-05-21T05:43:22;11.27;;;7.57;;
58017;SDS011;43810;50.860;19.226;2023-05-21T05:45:49;9.73;;;7.40;;
58017;SDS011;43810;50.860;19.226;2023-05-21T05:48:15;9.98;;;6.70;;
58017;SDS011;43810;50.860;19.226;2023-05-21T05:50:41;10.65;;;7.10;;
58017;SDS011;43810;50.860;19.226;2023-05-21T05:53:07;9.85;;;6.75;;
58017;SDS011;43810;50.860;19.226;2023-05-21T05:55:33;9.15;;;6.40;;
58017;SDS011;43810;50.860;19.226;2023-05-21T05:57:59;8.45;;;6.70;;
58017;SDS011;43810;50.860;19.226;2023-05-21T06:00:24;10.77;;;6.20;;
58017;SDS011;43810;50.860;19.226;2023-05-21T06:02:50;7.35;;;5.80;;
58017;SDS011;43810;50.860;19.226;2023-05-21T06:05:16;9.45;;;5.50;;
58017;SDS011;43810;50.860;19.226;2023-05-21T06:07:42;9.75;;;5.38;;
58017;SDS011;43810;50.860;19.226;2023-05-21T06:10:08;10.30;;;5.15;;
58017;SDS011;43810;50.860;19.226;2023-05-21T06:12:34;6.72;;;4.90;;
58017;SDS011;43810;50.860;19.226;2023-05-21T06:15:00;10.32;;;5.22;;
58017;SDS011;43810;50.860;19.226;2023-05-21T06:17:26;11.15;;;4.88;;
58017;SDS011;43810;50.860;19.226;2023-05-21T06:19:51;5.05;;;4.55;;
58017;SDS011;43810;50.860;19.226;2023-05-21T06:22:18;6.95;;;4.47;;
58017;SDS011;43810;50.860;19.226;2023-05-21T06:24:43;8.02;;;4.50;;
58017;SDS011;43810;50.860;19.226;2023-05-21T06:27:10;5.97;;;4.22;;
58017;SDS011;43810;50.860;19.226;2023-05-21T06:29:36;5.32;;;3.97;;
58017;SDS011;43810;50.860;19.226;2023-05-21T06:32:03;5.35;;;3.70;;
58017;SDS011;43810;50.860;19.226;2023-05-21T06:34:28;7.07;;;3.70;;
58017;SDS011;43810;50.860;19.226;2023-05-21T06:36:55;4.43;;;4.03;;
58017;SDS011;43810;50.860;19.226;2023-05-21T06:39:20;11.00;;;4.60;;
58017;SDS011;43810;50.860;19.226;2023-05-21T06:41:46;8.90;;;4.10;;
58017;SDS011;43810;50.860;19.226;2023-05-21T06:44:13;8.18;;;4.07;;
58017;SDS011;43810;50.860;19.226;2023-05-21T06:46:40;6.53;;;4.25;;
58017;SDS011;43810;50.860;19.226;2023-05-21T06:49:07;5.15;;;3.78;;
58017;SDS011;43810;50.860;19.226;2023-05-21T06:51:33;6.40;;;4.13;;
58017;SDS011;43810;50.860;19.226;2023-05-21T06:53:58;7.28;;;3.70;;
58017;SDS011;43810;50.860;19.226;2023-05-21T06:56:25;5.18;;;4.30;;
58017;SDS011;43810;50.860;19.226;2023-05-21T06:58:51;6.35;;;3.95;;
58017;SDS011;43810;50.860;19.226;2023-05-21T07:01:18;7.75;;;4.10;;
58017;SDS011;43810;50.860;19.226;2023-05-21T07:03:43;4.70;;;3.63;;
58017;SDS011;43810;50.860;19.226;2023-05-21T07:06:09;4.40;;;3.40;;
58017;SDS011;43810;50.860;19.226;2023-05-21T07:08:35;4.72;;;3.08;;
58017;SDS011;43810;50.860;19.226;2023-05-21T07:11:01;3.88;;;3.20;;
58017;SDS011;43810;50.860;19.226;2023-05-21T07:13:27;4.93;;;3.25;;
58017;SDS011;43810;50.860;19.226;2023-05-21T07:15:54;4.38;;;3.38;;
58017;SDS011;43810;50.860;19.226;2023-05-21T07:18:20;4.85;;;3.17;;
58017;SDS011;43810;50.860;19.226;2023-05-21T07:20:46;4.68;;;3.10;;
58017;SDS011;43810;50.860;19.226;2023-05-21T07:23:11;4.57;;;3.20;;
58017;SDS011;43810;50.860;19.226;2023-05-21T07:25:37;4.03;;;3.10;;
58017;SDS011;43810;50.860;19.226;2023-05-21T07:28:03;3.35;;;2.90;;
58017;SDS011;43810;50.860;19.226;2023-05-21T07:30:29;3.60;;;2.83;;
58017;SDS011;43810;50.860;19.226;2023-05-21T07:32:55;4.93;;;3.15;;
58017;SDS011;43810;50.860;19.226;2023-05-21T07:35:21;6.50;;;3.13;;
58017;SDS011;43810;50.860;19.226;2023-05-21T07:37:46;5.43;;;2.88;;
58017;SDS011;43810;50.860;19.226;2023-05-21T07:40:12;6.20;;;3.17;;
58017;SDS011;43810;50.860;19.226;2023-05-21T07:42:38;5.15;;;2.92;;
58017;SDS011;43810;50.860;19.226;2023-05-21T07:45:05;6.60;;;3.80;;
58017;SDS011;43810;50.860;19.226;2023-05-21T07:47:31;4.30;;;2.60;;
58017;SDS011;43810;50.860;19.226;2023-05-21T07:49:57;5.78;;;2.83;;
58017;SDS011;43810;50.860;19.226;2023-05-21T07:52:23;4.43;;;2.78;;
58017;SDS011;43810;50.860;19.226;2023-05-21T07:54:49;4.18;;;3.00;;
58017;SDS011;43810;50.860;19.226;2023-05-21T07:57:15;4.05;;;2.88;;
58017;SDS011;43810;50.860;19.226;2023-05-21T07:59:41;4.43;;;2.80;;
58017;SDS011;43810;50.860;19.226;2023-05-21T08:02:06;3.42;;;2.40;;
58017;SDS011;43810;50.860;19.226;2023-05-21T08:04:33;5.65;;;2.80;;
58017;SDS011;43810;50.860;19.226;2023-05-21T08:06:58;7.65;;;2.80;;
58017;SDS011;43810;50.860;19.226;2023-05-21T08:09:24;4.30;;;2.70;;
58017;SDS011;43810;50.860;19.226;2023-05-21T08:11:50;5.63;;;2.50;;
58017;SDS011;43810;50.860;19.226;2023-05-21T08:14:16;5.40;;;2.70;;
58017;SDS011;43810;50.860;19.226;2023-05-21T08:16:42;3.78;;;2.70;;
58017;SDS011;43810;50.860;19.226;2023-05-21T08:19:09;3.75;;;2.30;;
58017;SDS011;43810;50.860;19.226;2023-05-21T08:21:35;6.07;;;2.80;;
58017;SDS011;43810;50.860;19.226;2023-05-21T08:24:01;3.95;;;2.40;;
58017;SDS011;43810;50.860;19.226;2023-05-21T08:26:27;4.10;;;2.72;;
58017;SDS011;43810;50.860;19.226;2023-05-21T08:28:53;4.75;;;2.60;;
58017;SDS011;43810;50.860;19.226;2023-05-21T08:31:19;7.03;;;2.92;;
58017;SDS011;43810;50.860;19.226;2023-05-21T08:33:51;3.28;;;2.75;;
58017;SDS011;43810;50.860;19.226;2023-05-21T08:36:18;4.32;;;2.28;;
58017;SDS011;43810;50.860;19.226;2023-05-21T08:38:44;6.95;;;2.30;;
58017;SDS011;43810;50.860;19.226;2023-05-21T08:41:10;4.90;;;2.38;;
58017;SDS011;43810;50.860;19.226;2023-05-21T08:43:37;2.42;;;2.22;;
58017;SDS011;43810;50.860;19.226;2023-05-21T08:46:07;3.70;;;2.15;;
58017;SDS011;43810;50.860;19.226;2023-05-21T08:48:35;4.72;;;2.28;;
58017;SDS011;43810;50.860;19.226;2023-05-21T08:51:01;3.00;;;2.03;;
58017;SDS011;43810;50.860;19.226;2023-05-21T08:53:27;3.35;;;1.98;;
58017;SDS011;43810;50.860;19.226;2023-05-21T08:55:53;2.63;;;2.03;;
58017;SDS011;43810;50.860;19.226;2023-05-21T08:58:20;3.15;;;1.83;;
58017;SDS011;43810;50.860;19.226;2023-05-21T09:00:46;2.45;;;2.20;;
58017;SDS011;43810;50.860;19.226;2023-05-21T09:03:13;3.55;;;1.88;;
58017;SDS011;43810;50.860;19.226;2023-05-21T09:05:40;4.93;;;2.42;;
58017;SDS011;43810;50.860;19.226;2023-05-21T09:08:15;3.33;;;2.00;;
58017;SDS011;43810;50.860;19.226;2023-05-21T09:10:50;3.95;;;1.98;;
58017;SDS011;43810;50.860;19.226;2023-05-21T09:13:17;2.63;;;2.15;;
58017;SDS011;43810;50.860;19.226;2023-05-21T09:15:44;2.67;;;2.00;;
58017;SDS011;43810;50.860;19.226;2023-05-21T09:18:11;5.30;;;2.17;;
58017;SDS011;43810;50.860;19.226;2023-05-21T09:20:38;7.80;;;1.90;;
58017;SDS011;43810;50.860;19.226;2023-05-21T09:23:04;5.28;;;2.03;;
58017;SDS011;43810;50.860;19.226;2023-05-21T09:25:32;3.67;;;2.40;;
58017;SDS011;43810;50.860;19.226;2023-05-21T09:28:01;4.78;;;2.28;;
58017;SDS011;43810;50.860;19.226;2023-05-21T09:30:27;4.55;;;2.20;;
58017;SDS011;43810;50.860;19.226;2023-05-21T09:32:57;4.18;;;2.28;;
58017;SDS011;43810;50.860;19.226;2023-05-21T09:35:24;4.00;;;1.90;;
58017;SDS011;43810;50.860;19.226;2023-05-21T09:37:51;3.60;;;1.75;;
58017;SDS011;43810;50.860;19.226;2023-05-21T09:40:18;5.82;;;2.17;;
58017;SDS011;43810;50.860;19.226;2023-05-21T09:42:46;6.60;;;2.47;;
58017;SDS011;43810;50.860;19.226;2023-05-21T09:45:18;3.38;;;2.08;;
58017;SDS011;43810;50.860;19.226;2023-05-21T09:47:46;3.42;;;2.40;;
58017;SDS011;43810;50.860;19.226;2023-05-21T09:50:13;3.75;;;2.40;;
58017;SDS011;43810;50.860;19.226;2023-05-21T09:52:43;2.47;;;2.28;;
58017;SDS011;43810;50.860;19.226;2023-05-21T09:55:09;3.85;;;2.50;;
58017;SDS011;43810;50.860;19.226;2023-05-21T09:57:43;6.05;;;2.28;;
58017;SDS011;43810;50.860;19.226;2023-05-21T10:00:23;5.07;;;2.22;;
58017;SDS011;43810;50.860;19.226;2023-05-21T10:02:52;3.03;;;2.58;;
58017;SDS011;43810;50.860;19.226;2023-05-21T10:05:19;4.10;;;2.53;;
58017;SDS011;43810;50.860;19.226;2023-05-21T10:07:49;5.53;;;2.70;;
58017;SDS011;43810;50.860;19.226;2023-05-21T10:10:17;5.25;;;2.67;;
58017;SDS011;43810;50.860;19.226;2023-05-21T10:12:45;4.15;;;2.70;;
58017;SDS011;43810;50.860;19.226;2023-05-21T10:15:15;5.43;;;2.90;;
58017;SDS011;43810;50.860;19.226;2023-05-21T10:17:45;4.72;;;2.50;;
58017;SDS011;43810;50.860;19.226;2023-05-21T10:20:12;6.03;;;2.80;;
58017;SDS011;43810;50.860;19.226;2023-05-21T10:22:39;3.97;;;2.85;;
58017;SDS011;43810;50.860;19.226;2023-05-21T10:25:08;5.57;;;2.28;;
58017;SDS011;43810;50.860;19.226;2023-05-21T10:27:37;5.80;;;2.90;;
58017;SDS011;43810;50.860;19.226;2023-05-21T10:30:04;4.40;;;2.78;;
58017;SDS011;43810;50.860;19.226;2023-05-21T10:32:31;4.68;;;3.00;;
58017;SDS011;43810;50.860;19.226;2023-05-21T10:34:57;4.55;;;2.30;;
58017;SDS011;43810;50.860;19.226;2023-05-21T10:37:24;4.95;;;2.75;;
58017;SDS011;43810;50.860;19.226;2023-05-21T10:39:52;7.82;;;2.92;;
58017;SDS011;43810;50.860;19.226;2023-05-21T10:47:32;3.40;;;2.30;;
58017;SDS011;43810;50.860;19.226;2023-05-21T11:01:47;3.75;;;2.35;;
58017;SDS011;43810;50.860;19.226;2023-05-21T11:04:20;8.65;;;2.75;;
58017;SDS011;43810;50.860;19.226;2023-05-21T11:06:52;4.57;;;2.33;;
58017;SDS011;43810;50.860;19.226;2023-05-21T11:09:19;4.47;;;2.60;;
58017;SDS011;43810;50.860;19.226;2023-05-21T11:11:45;2.78;;;2.22;;
58017;SDS011;43810;50.860;19.226;2023-05-21T11:22:09;4.50;;;2.25;;
58017;SDS011;43810;50.860;19.226;2023-05-21T11:24:44;3.90;;;2.42;;
58017;SDS011;43810;50.860;19.226;2023-05-21T11:27:10;3.78;;;2.40;;
58017;SDS011;43810;50.860;19.226;2023-05-21T11:32:07;5.88;;;2.75;;
58017;SDS011;43810;50.860;19.226;2023-05-21T11:34:41;6.45;;;2.55;;
58017;SDS011;43810;50.860;19.226;2023-05-21T11:39:46;4.35;;;2.13;;
58017;SDS011;43810;50.860;19.226;2023-05-21T11:42:12;3.05;;;2.58;;
58017;SDS011;43810;50.860;19.226;2023-05-21T11:44:52;3.10;;;2.72;;
58017;SDS011;43810;50.860;19.226;2023-05-21T11:47:17;4.55;;;2.65;;
58017;SDS011;43810;50.860;19.226;2023-05-21T11:49:44;4.97;;;2.55;;
58017;SDS011;43810;50.860;19.226;2023-05-21T11:52:10;7.47;;;2.72;;
58017;SDS011;43810;50.860;19.226;2023-05-21T11:57:17;5.45;;;2.22;;
58017;SDS011;43810;50.860;19.226;2023-05-21T11:59:55;7.35;;;2.53;;
58017;SDS011;43810;50.860;19.226;2023-05-21T12:02:26;5.03;;;2.25;;
58017;SDS011;43810;50.860;19.226;2023-05-21T12:04:56;5.28;;;2.58;;
58017;SDS011;43810;50.860;19.226;2023-05-21T12:07:25;2.78;;;2.50;;
58017;SDS011;43810;50.860;19.226;2023-05-21T12:09:56;8.75;;;2.53;;
58017;SDS011;43810;50.860;19.226;2023-05-21T12:12:25;2.97;;;2.60;;
58017;SDS011;43810;50.860;19.226;2023-05-21T12:14:53;5.10;;;2.67;;
58017;SDS011;43810;50.860;19.226;2023-05-21T12:17:29;5.57;;;2.80;;
58017;SDS011;43810;50.860;19.226;2023-05-21T12:19:59;6.07;;;2.70;;
58017;SDS011;43810;50.860;19.226;2023-05-21T12:22:26;6.70;;;2.50;;
58017;SDS011;43810;50.860;19.226;2023-05-21T12:24:55;9.82;;;3.10;;
58017;SDS011;43810;50.860;19.226;2023-05-21T12:27:22;4.63;;;2.80;;
58017;SDS011;43810;50.860;19.226;2023-05-21T12:29:49;2.90;;;2.50;;
58017;SDS011;43810;50.860;19.226;2023-05-21T12:32:16;4.20;;;2.42;;
58017;SDS011;43810;50.860;19.226;2023-05-21T12:34:43;5.10;;;2.85;;
58017;SDS011;43810;50.860;19.226;2023-05-21T12:37:23;3.78;;;2.80;;
58017;SDS011;43810;50.860;19.226;2023-05-21T12:39:58;4.47;;;2.53;;
58017;SDS011;43810;50.860;19.226;2023-05-21T12:42:39;3.35;;;2.60;;
58017;SDS011;43810;50.860;19.226;2023-05-21T12:45:06;2.92;;;2.40;;
58017;SDS011;43810;50.860;19.226;2023-05-21T12:47:33;3.80;;;2.97;;
58017;SDS011;43810;50.860;19.226;2023-05-21T12:50:00;5.55;;;3.20;;
58017;SDS011;43810;50.860;19.226;2023-05-21T12:52:27;3.92;;;2.75;;
58017;SDS011;43810;50.860;19.226;2023-05-21T12:54:55;4.25;;;2.70;;
58017;SDS011;43810;50.860;19.226;2023-05-21T12:57:35;4.00;;;2.47;;
58017;SDS011;43810;50.860;19.226;2023-05-21T13:00:03;5.53;;;2.65;;
58017;SDS011;43810;50.860;19.226;2023-05-21T13:02:37;4.15;;;2.67;;
58017;SDS011;43810;50.860;19.226;2023-05-21T13:05:08;4.05;;;2.53;;
58017;SDS011;43810;50.860;19.226;2023-05-21T13:07:36;6.88;;;2.22;;
58017;SDS011;43810;50.860;19.226;2023-05-21T13:10:07;6.50;;;2.85;;
58017;SDS011;43810;50.860;19.226;2023-05-21T13:12:33;4.13;;;2.45;;
58017;SDS011;43810;50.860;19.226;2023-05-21T13:15:00;5.60;;;2.55;;
58017;SDS011;43810;50.860;19.226;2023-05-21T13:17:27;6.30;;;2.58;;
58017;SDS011;43810;50.860;19.226;2023-05-21T13:20:03;3.30;;;2.15;;
58017;SDS011;43810;50.860;19.226;2023-05-21T13:22:33;3.78;;;2.22;;
58017;SDS011;43810;50.860;19.226;2023-05-21T13:25:01;4.75;;;2.67;;
58017;SDS011;43810;50.860;19.226;2023-05-21T13:27:27;4.32;;;2.22;;
58017;SDS011;43810;50.860;19.226;2023-05-21T13:29:53;3.42;;;2.30;;
58017;SDS011;43810;50.860;19.226;2023-05-21T13:32:19;3.30;;;2.35;;
58017;SDS011;43810;50.860;19.226;2023-05-21T13:34:45;6.60;;;2.25;;
58017;SDS011;43810;50.860;19.226;2023-05-21T13:37:12;4.53;;;2.72;;
58017;SDS011;43810;50.860;19.226;2023-05-21T13:39:38;6.18;;;2.20;;
58017;SDS011;43810;50.860;19.226;2023-05-21T13:42:04;4.82;;;2.58;;
58017;SDS011;43810;50.860;19.226;2023-05-21T13:44:31;7.15;;;2.55;;
58017;SDS011;43810;50.860;19.226;2023-05-21T13:47:04;3.65;;;2.08;;
58017;SDS011;43810;50.860;19.226;2023-05-21T13:49:31;3.85;;;2.25;;
58017;SDS011;43810;50.860;19.226;2023-05-21T13:51:57;2.80;;;2.30;;
58017;SDS011;43810;50.860;19.226;2023-05-21T13:54:25;4.28;;;3.50;;
58017;SDS011;43810;50.860;19.226;2023-05-21T13:56:52;3.22;;;2.50;;
58017;SDS011;43810;50.860;19.226;2023-05-21T13:59:18;4.18;;;2.70;;
58017;SDS011;43810;50.860;19.226;2023-05-21T14:01:44;3.17;;;2.20;;
58017;SDS011;43810;50.860;19.226;2023-05-21T14:04:11;2.95;;;2.50;;
58017;SDS011;43810;50.860;19.226;2023-05-21T14:06:36;3.72;;;2.78;;
58017;SDS011;43810;50.860;19.226;2023-05-21T14:09:03;3.83;;;2.50;;
58017;SDS011;43810;50.860;19.226;2023-05-21T14:11:29;4.30;;;2.50;;
58017;SDS011;43810;50.860;19.226;2023-05-21T14:14:00;3.60;;;2.78;;
58017;SDS011;43810;50.860;19.226;2023-05-21T14:16:26;4.43;;;2.35;;
58017;SDS011;43810;50.860;19.226;2023-05-21T14:18:56;4.28;;;2.58;;
58017;SDS011;43810;50.860;19.226;2023-05-21T14:21:22;3.92;;;2.50;;
58017;SDS011;43810;50.860;19.226;2023-05-21T14:23:48;4.93;;;2.80;;
58017;SDS011;43810;50.860;19.226;2023-05-21T14:26:14;2.72;;;2.42;;
58017;SDS011;43810;50.860;19.226;2023-05-21T14:28:41;6.82;;;2.63;;
58017;SDS011;43810;50.860;19.226;2023-05-21T14:31:07;3.38;;;2.55;;
58017;SDS011;43810;50.860;19.226;2023-05-21T14:33:36;3.72;;;2.40;;
58017;SDS011;43810;50.860;19.226;2023-05-21T14:36:03;3.67;;;2.80;;
58017;SDS011;43810;50.860;19.226;2023-05-21T14:38:30;8.20;;;2.63;;
58017;SDS011;43810;50.860;19.226;2023-05-21T14:40:56;3.28;;;2.58;;
58017;SDS011;43810;50.860;19.226;2023-05-21T14:43:21;4.55;;;2.78;;
58017;SDS011;43810;50.860;19.226;2023-05-21T14:45:48;7.18;;;3.03;;
58017;SDS011;43810;50.860;19.226;2023-05-21T14:48:18;9.55;;;2.42;;
58017;SDS011;43810;50.860;19.226;2023-05-21T14:50:47;4.28;;;2.20;;
58017;SDS011;43810;50.860;19.226;2023-05-21T14:53:17;4.82;;;2.72;;
58017;SDS011;43810;50.860;19.226;2023-05-21T14:55:43;4.18;;;2.60;;
58017;SDS011;43810;50.860;19.226;2023-05-21T14:58:10;4.55;;;3.40;;
58017;SDS011;43810;50.860;19.226;2023-05-21T15:00:36;5.82;;;2.45;;